sensor_id;sensor_type;location;lat;lon;timestamp;pressure;altitude;pressure_sealevel;temperature;humidity
77454;BME280;66538;53.150;18.160;2023-07-22T00:01:50;100779.91;;;17.28;67.41
77454;BME280;66538;53.150;18.160;2023-07-22T00:04:16;100778.11;;;17.26;67.20
77454;BME280;66538;53.150;18.160;2023-07-22T00:06:43;100780.88;;;17.25;67.06
77454;BME280;66538;53.150;18.160;2023-07-22T00:09:09;100779.09;;;17.22;67.80
77454;BME280;66538;53.150;18.160;2023-07-22T00:11:36;100782.17;;;17.18;67.46
77454;BME280;66538;53.150;18.160;2023-07-22T00:14:03;100785.70;;;17.15;67.73
77454;BME280;66538;53.150;18.160;2023-07-22T00:16:32;100788.59;;;17.12;67.94
77454;BME280;66538;53.150;18.160;2023-07-22T00:18:59;100790.28;;;17.07;68.33
77454;BME280;66538;53.150;18.160;2023-07-22T00:21:26;100789.13;;;17.00;68.75
77454;BME280;66538;53.150;18.160;2023-07-22T00:23:54;100791.25;;;16.96;68.48
77454;BME280;66538;53.150;18.160;2023-07-22T00:26:20;100790.59;;;16.94;68.57
77454;BME280;66538;53.150;18.160;2023-07-22T00:28:47;100788.09;;;16.93;68.65
77454;BME280;66538;53.150;18.160;2023-07-22T00:31:13;100783.04;;;16.91;68.88
77454;BME280;66538;53.150;18.160;2023-07-22T00:33:40;100779.11;;;16.87;68.83
77454;BME280;66538;53.150;18.160;2023-07-22T00:36:06;100768.84;;;16.83;68.91
77454;BME280;66538;53.150;18.160;2023-07-22T00:38:33;100761.14;;;16.82;69.23
77454;BME280;66538;53.150;18.160;2023-07-22T00:40:59;100756.56;;;16.78;69.18
77454;BME280;66538;53.150;18.160;2023-07-22T00:43:26;100754.91;;;16.76;69.22
77454;BME280;66538;53.150;18.160;2023-07-22T00:45:53;100758.02;;;16.75;69.53
77454;BME280;66538;53.150;18.160;2023-07-22T00:48:20;100756.19;;;16.73;69.62
77454;BME280;66538;53.150;18.160;2023-07-22T00:50:47;100757.42;;;16.68;69.49
77454;BME280;66538;53.150;18.160;2023-07-22T00:53:14;100760.54;;;16.68;69.56
77454;BME280;66538;53.150;18.160;2023-07-22T00:55:41;100756.23;;;16.66;69.48
77454;BME280;66538;53.150;18.160;2023-07-22T00:58:08;100757.20;;;16.67;69.89
77454;BME280;66538;53.150;18.160;2023-07-22T01:00:34;100748.39;;;16.69;69.72
77454;BME280;66538;53.150;18.160;2023-07-22T01:03:01;100744.78;;;16.70;69.77
77454;BME280;66538;53.150;18.160;2023-07-22T01:05:28;100746.91;;;16.71;69.67
77454;BME280;66538;53.150;18.160;2023-07-22T01:07:56;100742.95;;;16.70;69.72
77454;BME280;66538;53.150;18.160;2023-07-22T01:10:23;100744.11;;;16.71;69.71
77454;BME280;66538;53.150;18.160;2023-07-22T01:12:49;100747.08;;;16.71;69.85
77454;BME280;66538;53.150;18.160;2023-07-22T01:15:16;100737.56;;;16.70;69.68
77454;BME280;66538;53.150;18.160;2023-07-22T01:17:43;100737.08;;;16.70;69.76
77454;BME280;66538;53.150;18.160;2023-07-22T01:20:10;100747.11;;;16.70;69.89
77454;BME280;66538;53.150;18.160;2023-07-22T01:22:38;100750.02;;;16.69;69.71
77454;BME280;66538;53.150;18.160;2023-07-22T01:25:06;100748.01;;;16.69;69.76
77454;BME280;66538;53.150;18.160;2023-07-22T01:27:33;100747.77;;;16.72;69.84
77454;BME280;66538;53.150;18.160;2023-07-22T01:30:00;100745.35;;;16.72;69.57
77454;BME280;66538;53.150;18.160;2023-07-22T01:32:29;100739.20;;;16.73;69.75
77454;BME280;66538;53.150;18.160;2023-07-22T01:34:55;100726.36;;;16.71;69.82
77454;BME280;66538;53.150;18.160;2023-07-22T01:37:22;100726.11;;;16.71;69.94
77454;BME280;66538;53.150;18.160;2023-07-22T01:39:49;100728.17;;;16.71;70.00
77454;BME280;66538;53.150;18.160;2023-07-22T01:42:17;100732.00;;;16.69;70.01
77454;BME280;66538;53.150;18.160;2023-07-22T01:44:44;100734.52;;;16.69;70.27
77454;BME280;66538;53.150;18.160;2023-07-22T01:47:11;100732.89;;;16.66;70.23
77454;BME280;66538;53.150;18.160;2023-07-22T01:49:37;100729.85;;;16.67;70.37
77454;BME280;66538;53.150;18.160;2023-07-22T01:52:04;100729.20;;;16.66;70.54
77454;BME280;66538;53.150;18.160;2023-07-22T01:54:31;100732.27;;;16.65;70.45
77454;BME280;66538;53.150;18.160;2023-07-22T01:56:58;100731.58;;;16.63;70.49
77454;BME280;66538;53.150;18.160;2023-07-22T01:59:25;100731.90;;;16.64;70.50
77454;BME280;66538;53.150;18.160;2023-07-22T02:01:51;100733.92;;;16.64;70.64
77454;BME280;66538;53.150;18.160;2023-07-22T02:04:18;100728.55;;;16.63;70.73
77454;BME280;66538;53.150;18.160;2023-07-22T02:06:44;100721.27;;;16.63;70.87
77454;BME280;66538;53.150;18.160;2023-07-22T02:09:11;100715.65;;;16.65;70.89
77454;BME280;66538;53.150;18.160;2023-07-22T02:11:40;100714.52;;;16.64;70.93
77454;BME280;66538;53.150;18.160;2023-07-22T02:14:06;100723.95;;;16.63;70.95
77454;BME280;66538;53.150;18.160;2023-07-22T02:16:34;100725.75;;;16.63;71.12
77454;BME280;66538;53.150;18.160;2023-07-22T02:19:02;100724.38;;;16.64;71.05
77454;BME280;66538;53.150;18.160;2023-07-22T02:21:29;100723.86;;;16.66;71.19
77454;BME280;66538;53.150;18.160;2023-07-22T02:23:55;100724.20;;;16.65;70.98
77454;BME280;66538;53.150;18.160;2023-07-22T02:26:22;100724.73;;;16.63;71.02
77454;BME280;66538;53.150;18.160;2023-07-22T02:28:49;100726.99;;;16.64;71.01
77454;BME280;66538;53.150;18.160;2023-07-22T02:31:15;100723.70;;;16.65;71.11
77454;BME280;66538;53.150;18.160;2023-07-22T02:33:42;100721.42;;;16.62;71.09
77454;BME280;66538;53.150;18.160;2023-07-22T02:36:09;100714.34;;;16.62;71.35
77454;BME280;66538;53.150;18.160;2023-07-22T02:38:35;100710.67;;;16.57;71.43
77454;BME280;66538;53.150;18.160;2023-07-22T02:41:03;100714.62;;;16.55;71.51
77454;BME280;66538;53.150;18.160;2023-07-22T02:43:33;100720.77;;;16.54;71.69
77454;BME280;66538;53.150;18.160;2023-07-22T02:46:04;100723.82;;;16.52;71.93
77454;BME280;66538;53.150;18.160;2023-07-22T02:48:34;100728.36;;;16.50;71.91
77454;BME280;66538;53.150;18.160;2023-07-22T02:51:04;100727.12;;;16.47;71.89
77454;BME280;66538;53.150;18.160;2023-07-22T02:53:35;100723.80;;;16.45;71.89
77454;BME280;66538;53.150;18.160;2023-07-22T02:56:05;100728.54;;;16.45;71.98
77454;BME280;66538;53.150;18.160;2023-07-22T02:58:33;100730.39;;;16.43;72.09
77454;BME280;66538;53.150;18.160;2023-07-22T03:01:00;100733.09;;;16.41;72.17
77454;BME280;66538;53.150;18.160;2023-07-22T03:03:27;100738.45;;;16.39;72.28
77454;BME280;66538;53.150;18.160;2023-07-22T03:05:54;100741.71;;;16.37;72.35
77454;BME280;66538;53.150;18.160;2023-07-22T03:08:20;100743.80;;;16.37;72.75
77454;BME280;66538;53.150;18.160;2023-07-22T03:10:47;100744.14;;;16.39;72.75
77454;BME280;66538;53.150;18.160;2023-07-22T03:13:15;100750.58;;;16.38;72.69
77454;BME280;66538;53.150;18.160;2023-07-22T03:15:42;100755.46;;;16.37;72.77
77454;BME280;66538;53.150;18.160;2023-07-22T03:18:09;100758.45;;;16.38;72.69
77454;BME280;66538;53.150;18.160;2023-07-22T03:20:39;100752.34;;;16.41;72.97
77454;BME280;66538;53.150;18.160;2023-07-22T03:23:06;100751.09;;;16.39;72.71
77454;BME280;66538;53.150;18.160;2023-07-22T03:25:34;100751.29;;;16.41;72.78
77454;BME280;66538;53.150;18.160;2023-07-22T03:28:04;100751.29;;;16.41;72.80
77454;BME280;66538;53.150;18.160;2023-07-22T03:30:31;100752.70;;;16.42;72.67
77454;BME280;66538;53.150;18.160;2023-07-22T03:32:57;100752.33;;;16.44;72.81
77454;BME280;66538;53.150;18.160;2023-07-22T03:35:25;100753.58;;;16.47;72.62
77454;BME280;66538;53.150;18.160;2023-07-22T03:37:51;100748.85;;;16.48;72.71
77454;BME280;66538;53.150;18.160;2023-07-22T03:40:18;100749.78;;;16.51;72.77
77454;BME280;66538;53.150;18.160;2023-07-22T03:42:50;100752.61;;;16.55;72.86
77454;BME280;66538;53.150;18.160;2023-07-22T03:45:18;100743.92;;;16.58;72.62
77454;BME280;66538;53.150;18.160;2023-07-22T03:47:46;100744.04;;;16.63;72.33
77454;BME280;66538;53.150;18.160;2023-07-22T03:50:13;100750.27;;;16.66;72.17
77454;BME280;66538;53.150;18.160;2023-07-22T03:52:40;100752.11;;;16.67;72.16
77454;BME280;66538;53.150;18.160;2023-07-22T03:55:07;100752.54;;;16.67;72.11
77454;BME280;66538;53.150;18.160;2023-07-22T03:57:34;100755.63;;;16.68;72.06
77454;BME280;66538;53.150;18.160;2023-07-22T04:00:00;100754.68;;;16.69;71.93
77454;BME280;66538;53.150;18.160;2023-07-22T04:02:27;100755.60;;;16.72;71.98
77454;BME280;66538;53.150;18.160;2023-07-22T04:04:55;100759.11;;;16.75;71.85
77454;BME280;66538;53.150;18.160;2023-07-22T04:07:22;100759.34;;;16.74;71.93
77454;BME280;66538;53.150;18.160;2023-07-22T04:09:48;100760.52;;;16.76;71.93
77454;BME280;66538;53.150;18.160;2023-07-22T04:12:15;100761.02;;;16.78;71.93
77454;BME280;66538;53.150;18.160;2023-07-22T04:14:41;100760.63;;;16.81;71.95
77454;BME280;66538;53.150;18.160;2023-07-22T04:17:08;100753.19;;;16.79;72.06
77454;BME280;66538;53.150;18.160;2023-07-22T04:19:35;100752.29;;;16.80;72.02
77454;BME280;66538;53.150;18.160;2023-07-22T04:22:02;100755.10;;;16.80;71.97
77454;BME280;66538;53.150;18.160;2023-07-22T04:24:31;100758.48;;;16.81;72.10
77454;BME280;66538;53.150;18.160;2023-07-22T04:27:00;100759.77;;;16.82;71.89
77454;BME280;66538;53.150;18.160;2023-07-22T04:29:27;100758.46;;;16.81;71.88
77454;BME280;66538;53.150;18.160;2023-07-22T04:32:01;100761.92;;;16.81;72.03
77454;BME280;66538;53.150;18.160;2023-07-22T04:34:31;100766.33;;;16.80;72.08
77454;BME280;66538;53.150;18.160;2023-07-22T04:36:58;100767.30;;;16.81;72.13
77454;BME280;66538;53.150;18.160;2023-07-22T04:39:25;100768.89;;;16.86;71.97
77454;BME280;66538;53.150;18.160;2023-07-22T04:41:52;100771.14;;;16.86;71.76
77454;BME280;66538;53.150;18.160;2023-07-22T04:44:19;100766.85;;;16.84;71.50
77454;BME280;66538;53.150;18.160;2023-07-22T04:46:46;100770.39;;;16.88;71.40
77454;BME280;66538;53.150;18.160;2023-07-22T04:49:13;100771.50;;;16.94;71.43
77454;BME280;66538;53.150;18.160;2023-07-22T04:51:46;100771.06;;;16.99;71.34
77454;BME280;66538;53.150;18.160;2023-07-22T04:54:13;100774.72;;;17.05;71.23
77454;BME280;66538;53.150;18.160;2023-07-22T04:56:41;100774.95;;;17.10;71.24
77454;BME280;66538;53.150;18.160;2023-07-22T04:59:09;100780.94;;;17.17;70.93
77454;BME280;66538;53.150;18.160;2023-07-22T05:01:36;100781.98;;;17.25;70.79
77454;BME280;66538;53.150;18.160;2023-07-22T05:04:03;100785.48;;;17.32;70.51
77454;BME280;66538;53.150;18.160;2023-07-22T05:06:31;100781.91;;;17.36;70.15
77454;BME280;66538;53.150;18.160;2023-07-22T05:08:57;100780.80;;;17.45;70.17
77454;BME280;66538;53.150;18.160;2023-07-22T05:11:24;100779.13;;;17.50;69.71
77454;BME280;66538;53.150;18.160;2023-07-22T05:13:50;100781.23;;;17.59;69.34
77454;BME280;66538;53.150;18.160;2023-07-22T05:16:17;100780.96;;;17.64;69.19
77454;BME280;66538;53.150;18.160;2023-07-22T05:18:45;100782.77;;;17.69;68.74
77454;BME280;66538;53.150;18.160;2023-07-22T05:21:11;100783.13;;;17.71;68.62
77454;BME280;66538;53.150;18.160;2023-07-22T05:23:38;100786.86;;;17.78;68.71
77454;BME280;66538;53.150;18.160;2023-07-22T05:26:05;100784.15;;;17.85;68.53
77454;BME280;66538;53.150;18.160;2023-07-22T05:28:31;100783.05;;;17.93;68.44
77454;BME280;66538;53.150;18.160;2023-07-22T05:30:58;100780.36;;;17.99;67.99
77454;BME280;66538;53.150;18.160;2023-07-22T05:33:25;100778.94;;;18.02;67.84
77454;BME280;66538;53.150;18.160;2023-07-22T05:35:51;100775.77;;;18.06;67.94
77454;BME280;66538;53.150;18.160;2023-07-22T05:38:18;100775.27;;;18.12;68.09
77454;BME280;66538;53.150;18.160;2023-07-22T05:40:45;100777.89;;;18.19;67.72
77454;BME280;66538;53.150;18.160;2023-07-22T05:43:12;100780.70;;;18.22;67.34
77454;BME280;66538;53.150;18.160;2023-07-22T05:45:38;100771.20;;;18.24;67.25
77454;BME280;66538;53.150;18.160;2023-07-22T05:48:05;100771.70;;;18.26;67.29
77454;BME280;66538;53.150;18.160;2023-07-22T05:50:32;100769.65;;;18.30;66.98
77454;BME280;66538;53.150;18.160;2023-07-22T05:52:59;100770.64;;;18.35;66.62
77454;BME280;66538;53.150;18.160;2023-07-22T05:55:25;100763.91;;;18.39;66.57
77454;BME280;66538;53.150;18.160;2023-07-22T05:57:53;100759.41;;;18.43;66.34
77454;BME280;66538;53.150;18.160;2023-07-22T06:00:20;100763.45;;;18.46;66.29
77454;BME280;66538;53.150;18.160;2023-07-22T06:02:48;100757.96;;;18.49;66.11
77454;BME280;66538;53.150;18.160;2023-07-22T06:05:15;100761.45;;;18.56;66.05
77454;BME280;66538;53.150;18.160;2023-07-22T06:07:42;100761.42;;;18.60;65.69
77454;BME280;66538;53.150;18.160;2023-07-22T06:10:09;100760.59;;;18.63;65.69
77454;BME280;66538;53.150;18.160;2023-07-22T06:12:36;100759.91;;;18.65;65.42
77454;BME280;66538;53.150;18.160;2023-07-22T06:15:03;100763.46;;;18.69;65.28
77454;BME280;66538;53.150;18.160;2023-07-22T06:17:30;100762.29;;;18.73;65.44
77454;BME280;66538;53.150;18.160;2023-07-22T06:19:57;100768.32;;;18.83;65.26
77454;BME280;66538;53.150;18.160;2023-07-22T06:22:23;100771.17;;;18.90;64.97
77454;BME280;66538;53.150;18.160;2023-07-22T06:24:50;100770.89;;;18.99;64.67
77454;BME280;66538;53.150;18.160;2023-07-22T06:27:17;100774.52;;;19.09;64.48
77454;BME280;66538;53.150;18.160;2023-07-22T06:29:43;100771.86;;;19.20;63.97
77454;BME280;66538;53.150;18.160;2023-07-22T06:32:10;100768.73;;;19.27;63.54
77454;BME280;66538;53.150;18.160;2023-07-22T06:34:37;100766.64;;;19.32;62.97
77454;BME280;66538;53.150;18.160;2023-07-22T06:37:04;100760.39;;;19.35;62.28
77454;BME280;66538;53.150;18.160;2023-07-22T06:39:31;100766.59;;;19.42;62.13
77454;BME280;66538;53.150;18.160;2023-07-22T06:41:57;100768.07;;;19.47;62.27
77454;BME280;66538;53.150;18.160;2023-07-22T06:44:24;100763.14;;;19.53;61.82
77454;BME280;66538;53.150;18.160;2023-07-22T06:46:50;100765.45;;;19.61;61.43
77454;BME280;66538;53.150;18.160;2023-07-22T06:49:17;100769.52;;;19.67;60.51
77454;BME280;66538;53.150;18.160;2023-07-22T06:51:44;100770.12;;;19.74;60.49
77454;BME280;66538;53.150;18.160;2023-07-22T06:54:10;100769.55;;;19.81;60.09
77454;BME280;66538;53.150;18.160;2023-07-22T06:56:37;100771.36;;;19.86;59.65
77454;BME280;66538;53.150;18.160;2023-07-22T06:59:03;100767.08;;;19.89;59.82
77454;BME280;66538;53.150;18.160;2023-07-22T07:01:30;100772.66;;;19.93;59.62
77454;BME280;66538;53.150;18.160;2023-07-22T07:03:57;100776.38;;;19.97;59.55
77454;BME280;66538;53.150;18.160;2023-07-22T07:06:23;100775.30;;;20.02;59.17
77454;BME280;66538;53.150;18.160;2023-07-22T07:08:50;100778.83;;;20.08;59.36
77454;BME280;66538;53.150;18.160;2023-07-22T07:11:17;100779.54;;;20.17;58.81
77454;BME280;66538;53.150;18.160;2023-07-22T07:13:43;100780.69;;;20.23;58.58
77454;BME280;66538;53.150;18.160;2023-07-22T07:16:30;100779.92;;;20.29;58.28
77454;BME280;66538;53.150;18.160;2023-07-22T07:18:59;100783.04;;;20.34;58.02
77454;BME280;66538;53.150;18.160;2023-07-22T07:21:27;100781.14;;;20.44;58.19
77454;BME280;66538;53.150;18.160;2023-07-22T07:23:54;100776.73;;;20.55;57.99
77454;BME280;66538;53.150;18.160;2023-07-22T07:26:21;100776.11;;;20.67;57.63
77454;BME280;66538;53.150;18.160;2023-07-22T07:28:49;100777.82;;;20.78;57.52
77454;BME280;66538;53.150;18.160;2023-07-22T07:31:19;100777.98;;;20.87;56.88
77454;BME280;66538;53.150;18.160;2023-07-22T07:33:46;100781.20;;;20.88;56.50
77454;BME280;66538;53.150;18.160;2023-07-22T07:36:12;100786.45;;;20.83;56.23
77454;BME280;66538;53.150;18.160;2023-07-22T07:38:39;100789.30;;;20.80;56.25
77454;BME280;66538;53.150;18.160;2023-07-22T07:41:06;100789.74;;;20.79;55.84
77454;BME280;66538;53.150;18.160;2023-07-22T07:43:39;100794.15;;;20.83;55.32
77454;BME280;66538;53.150;18.160;2023-07-22T07:46:23;100791.13;;;20.90;55.02
77454;BME280;66538;53.150;18.160;2023-07-22T07:48:55;100799.23;;;21.04;54.87
77454;BME280;66538;53.150;18.160;2023-07-22T07:51:25;100793.16;;;21.19;54.41
77454;BME280;66538;53.150;18.160;2023-07-22T07:53:54;100796.27;;;21.32;53.59
77454;BME280;66538;53.150;18.160;2023-07-22T07:56:21;100797.85;;;21.48;52.82
77454;BME280;66538;53.150;18.160;2023-07-22T07:58:51;100804.65;;;21.67;51.89
77454;BME280;66538;53.150;18.160;2023-07-22T08:01:21;100799.41;;;21.81;52.06
77454;BME280;66538;53.150;18.160;2023-07-22T08:03:49;100803.27;;;21.94;51.68
77454;BME280;66538;53.150;18.160;2023-07-22T08:06:17;100804.21;;;22.12;50.85
77454;BME280;66538;53.150;18.160;2023-07-22T08:08:45;100806.29;;;22.26;50.25
77454;BME280;66538;53.150;18.160;2023-07-22T08:11:14;100802.82;;;22.38;50.11
77454;BME280;66538;53.150;18.160;2023-07-22T08:13:42;100806.00;;;22.48;50.36
77454;BME280;66538;53.150;18.160;2023-07-22T08:16:12;100808.73;;;22.61;49.71
77454;BME280;66538;53.150;18.160;2023-07-22T08:18:39;100811.64;;;22.75;48.73
77454;BME280;66538;53.150;18.160;2023-07-22T08:21:07;100819.48;;;22.85;48.44
77454;BME280;66538;53.150;18.160;2023-07-22T08:23:36;100822.59;;;22.79;48.36
77454;BME280;66538;53.150;18.160;2023-07-22T08:26:03;100822.89;;;22.78;48.66
77454;BME280;66538;53.150;18.160;2023-07-22T08:28:32;100816.38;;;22.80;48.98
77454;BME280;66538;53.150;18.160;2023-07-22T08:30:58;100813.10;;;22.91;48.97
77454;BME280;66538;53.150;18.160;2023-07-22T08:33:27;100816.50;;;22.92;48.87
77454;BME280;66538;53.150;18.160;2023-07-22T08:35:53;100819.24;;;22.98;48.79
77454;BME280;66538;53.150;18.160;2023-07-22T08:38:20;100819.75;;;23.01;48.82
77454;BME280;66538;53.150;18.160;2023-07-22T08:40:49;100820.81;;;23.10;49.19
77454;BME280;66538;53.150;18.160;2023-07-22T08:43:20;100819.30;;;23.20;48.62
77454;BME280;66538;53.150;18.160;2023-07-22T08:45:49;100822.73;;;23.23;48.42
77454;BME280;66538;53.150;18.160;2023-07-22T08:48:17;100830.66;;;23.34;47.41
77454;BME280;66538;53.150;18.160;2023-07-22T08:51:12;100828.20;;;23.26;48.11
77454;BME280;66538;53.150;18.160;2023-07-22T08:53:43;100843.88;;;23.10;48.34
77454;BME280;66538;53.150;18.160;2023-07-22T08:56:11;100847.89;;;22.88;48.96
77454;BME280;66538;53.150;18.160;2023-07-22T08:58:39;100846.17;;;22.67;49.31
77454;BME280;66538;53.150;18.160;2023-07-22T09:01:08;100851.73;;;22.45;49.93
77454;BME280;66538;53.150;18.160;2023-07-22T09:03:36;100854.25;;;22.35;50.14
77454;BME280;66538;53.150;18.160;2023-07-22T09:06:04;100845.00;;;22.51;50.35
77454;BME280;66538;53.150;18.160;2023-07-22T09:08:31;100847.83;;;22.72;50.29
77454;BME280;66538;53.150;18.160;2023-07-22T09:10:58;100857.52;;;22.83;49.90
77454;BME280;66538;53.150;18.160;2023-07-22T09:13:26;100855.39;;;22.86;49.27
77454;BME280;66538;53.150;18.160;2023-07-22T09:15:53;100856.11;;;22.76;49.67
77454;BME280;66538;53.150;18.160;2023-07-22T09:18:23;100859.65;;;22.75;50.24
77454;BME280;66538;53.150;18.160;2023-07-22T09:20:50;100856.77;;;22.75;50.61
77454;BME280;66538;53.150;18.160;2023-07-22T09:23:17;100858.23;;;22.76;50.53
77454;BME280;66538;53.150;18.160;2023-07-22T09:25:43;100858.78;;;22.64;50.72
77454;BME280;66538;53.150;18.160;2023-07-22T09:28:10;100858.45;;;22.44;51.21
77454;BME280;66538;53.150;18.160;2023-07-22T09:30:38;100865.25;;;22.22;52.01
77454;BME280;66538;53.150;18.160;2023-07-22T09:33:22;100871.09;;;22.10;52.60
77454;BME280;66538;53.150;18.160;2023-07-22T09:35:49;100880.77;;;22.07;52.92
77454;BME280;66538;53.150;18.160;2023-07-22T09:38:24;100880.13;;;22.02;52.95
77454;BME280;66538;53.150;18.160;2023-07-22T09:40:52;100880.42;;;22.15;52.84
77454;BME280;66538;53.150;18.160;2023-07-22T09:43:19;100883.06;;;22.43;52.69
77454;BME280;66538;53.150;18.160;2023-07-22T09:45:48;100886.27;;;22.65;52.42
77454;BME280;66538;53.150;18.160;2023-07-22T09:48:15;100886.98;;;23.01;51.82
77454;BME280;66538;53.150;18.160;2023-07-22T09:50:42;100895.84;;;23.13;51.08
77454;BME280;66538;53.150;18.160;2023-07-22T09:53:15;100884.38;;;23.16;51.13
77454;BME280;66538;53.150;18.160;2023-07-22T09:55:42;100882.72;;;23.36;50.49
77454;BME280;66538;53.150;18.160;2023-07-22T09:58:09;100889.77;;;23.24;50.28
77454;BME280;66538;53.150;18.160;2023-07-22T10:00:39;100898.80;;;23.12;50.55
77454;BME280;66538;53.150;18.160;2023-07-22T10:03:10;100897.61;;;22.87;50.75
77454;BME280;66538;53.150;18.160;2023-07-22T10:05:38;100896.88;;;22.53;51.51
77454;BME280;66538;53.150;18.160;2023-07-22T10:08:06;100897.79;;;22.30;52.05
77454;BME280;66538;53.150;18.160;2023-07-22T10:10:39;100905.13;;;22.10;52.72
77454;BME280;66538;53.150;18.160;2023-07-22T10:13:09;100915.42;;;22.05;52.61
77454;BME280;66538;53.150;18.160;2023-07-22T10:15:39;100913.06;;;22.04;52.39
77454;BME280;66538;53.150;18.160;2023-07-22T10:18:07;100912.05;;;22.09;52.19
77454;BME280;66538;53.150;18.160;2023-07-22T10:20:38;100914.92;;;22.21;51.55
77454;BME280;66538;53.150;18.160;2023-07-22T10:23:06;100912.80;;;22.19;51.49
77454;BME280;66538;53.150;18.160;2023-07-22T10:25:35;100907.61;;;22.27;51.27
77454;BME280;66538;53.150;18.160;2023-07-22T10:28:05;100914.29;;;22.32;51.43
77454;BME280;66538;53.150;18.160;2023-07-22T10:30:32;100915.16;;;22.39;50.01
77454;BME280;66538;53.150;18.160;2023-07-22T10:32:59;100909.89;;;22.33;49.27
77454;BME280;66538;53.150;18.160;2023-07-22T10:38:06;100913.61;;;22.20;48.32
77454;BME280;66538;53.150;18.160;2023-07-22T10:40:49;100915.08;;;22.17;48.30
77454;BME280;66538;53.150;18.160;2023-07-22T10:43:17;100905.25;;;22.22;48.05
77454;BME280;66538;53.150;18.160;2023-07-22T10:45:54;100921.35;;;22.33;47.67
77454;BME280;66538;53.150;18.160;2023-07-22T10:48:26;100924.27;;;22.42;47.51
77454;BME280;66538;53.150;18.160;2023-07-22T10:51:06;100914.72;;;22.51;47.71
77454;BME280;66538;53.150;18.160;2023-07-22T10:53:36;100913.89;;;22.75;47.41
77454;BME280;66538;53.150;18.160;2023-07-22T10:56:15;100916.11;;;22.92;47.07
77454;BME280;66538;53.150;18.160;2023-07-22T11:12:09;100914.80;;;24.41;40.89
77454;BME280;66538;53.150;18.160;2023-07-22T11:17:06;100914.55;;;24.88;40.52
77454;BME280;66538;53.150;18.160;2023-07-22T11:19:34;100902.02;;;25.09;40.19
77454;BME280;66538;53.150;18.160;2023-07-22T11:22:01;100918.12;;;25.12;39.45
77454;BME280;66538;53.150;18.160;2023-07-22T11:24:29;100913.79;;;24.87;38.99
77454;BME280;66538;53.150;18.160;2023-07-22T11:26:55;100912.59;;;24.74;40.11
77454;BME280;66538;53.150;18.160;2023-07-22T11:29:22;100913.59;;;24.89;40.24
77454;BME280;66538;53.150;18.160;2023-07-22T11:31:50;100922.84;;;24.81;40.00
77454;BME280;66538;53.150;18.160;2023-07-22T11:34:20;100915.86;;;24.74;39.51
77454;BME280;66538;53.150;18.160;2023-07-22T11:36:48;100905.48;;;24.78;39.38
77454;BME280;66538;53.150;18.160;2023-07-22T11:39:15;100913.39;;;24.90;39.07
77454;BME280;66538;53.150;18.160;2023-07-22T11:41:43;100907.63;;;24.78;39.64
77454;BME280;66538;53.150;18.160;2023-07-22T11:44:13;100906.80;;;24.90;39.21
77454;BME280;66538;53.150;18.160;2023-07-22T11:47:00;100899.88;;;25.06;38.51
77454;BME280;66538;53.150;18.160;2023-07-22T11:52:28;100909.79;;;25.18;37.69
77454;BME280;66538;53.150;18.160;2023-07-22T11:54:59;100906.48;;;25.13;36.06
77454;BME280;66538;53.150;18.160;2023-07-22T11:57:28;100915.38;;;25.13;35.39
77454;BME280;66538;53.150;18.160;2023-07-22T11:59:57;100915.80;;;25.18;35.62
77454;BME280;66538;53.150;18.160;2023-07-22T12:02:25;100913.86;;;25.23;35.59
77454;BME280;66538;53.150;18.160;2023-07-22T12:05:02;100910.98;;;25.21;35.55
77454;BME280;66538;53.150;18.160;2023-07-22T12:07:32;100912.44;;;25.49;35.43
77454;BME280;66538;53.150;18.160;2023-07-22T12:10:04;100908.45;;;25.74;34.93
77454;BME280;66538;53.150;18.160;2023-07-22T12:12:39;100905.42;;;25.63;35.18
77454;BME280;66538;53.150;18.160;2023-07-22T12:20:19;100920.27;;;24.82;36.28
77454;BME280;66538;53.150;18.160;2023-07-22T12:22:49;100913.05;;;25.02;36.60
77454;BME280;66538;53.150;18.160;2023-07-22T12:25:16;100912.90;;;25.35;36.30
77454;BME280;66538;53.150;18.160;2023-07-22T12:27:43;100908.17;;;25.65;35.95
77454;BME280;66538;53.150;18.160;2023-07-22T12:30:10;100906.70;;;25.89;35.32
77454;BME280;66538;53.150;18.160;2023-07-22T12:32:37;100902.08;;;25.96;34.40
77454;BME280;66538;53.150;18.160;2023-07-22T12:35:05;100908.36;;;26.19;35.08
77454;BME280;66538;53.150;18.160;2023-07-22T12:37:32;100905.53;;;26.54;34.39
77454;BME280;66538;53.150;18.160;2023-07-22T12:39:58;100901.46;;;26.76;32.56
77454;BME280;66538;53.150;18.160;2023-07-22T12:42:25;100910.34;;;27.01;31.96
77454;BME280;66538;53.150;18.160;2023-07-22T12:44:52;100906.69;;;27.37;30.23
77454;BME280;66538;53.150;18.160;2023-07-22T12:47:19;100903.55;;;27.53;29.79
77454;BME280;66538;53.150;18.160;2023-07-22T12:49:45;100907.40;;;27.55;30.76
77454;BME280;66538;53.150;18.160;2023-07-22T12:52:12;100910.69;;;27.67;30.31
77454;BME280;66538;53.150;18.160;2023-07-22T12:54:39;100928.31;;;27.75;30.20
77454;BME280;66538;53.150;18.160;2023-07-22T12:57:06;100922.91;;;27.71;29.21
77454;BME280;66538;53.150;18.160;2023-07-22T12:59:33;100930.08;;;27.35;29.27
77454;BME280;66538;53.150;18.160;2023-07-22T13:01:59;100929.15;;;26.84;30.00
77454;BME280;66538;53.150;18.160;2023-07-22T13:04:26;100918.72;;;26.40;30.77
77454;BME280;66538;53.150;18.160;2023-07-22T13:06:52;100928.39;;;26.27;31.04
77454;BME280;66538;53.150;18.160;2023-07-22T13:09:20;100921.16;;;26.39;31.02
77454;BME280;66538;53.150;18.160;2023-07-22T13:11:47;100917.59;;;27.19;30.57